Time;durP1;ratioP1;P1;durP2;ratioP2;P2;SDS_P1;SDS_P2;PMS_P1;PMS_P2;Temp;Humidity;BMP_temperature;BMP_pressure;BME280_temperature;BME280_humidity;BME280_pressure;Samples;Min_cycle;Max_cycle;Signal;HPM_P1;HPM_P2
2023/05/04 00:01:10;;;;;;;5.55;4.65;;;6.20;99.90;;;;;;5054960;28;20045;-74
2023/05/04 00:03:36;;;;;;;4.82;2.90;;;6.20;99.90;;;;;;5056992;28;20452;-74
2023/05/04 00:06:02;;;;;;;5.50;3.00;;;6.10;99.90;;;;;;5056532;28;20048;-74
2023/05/04 00:08:29;;;;;;;6.30;2.97;;;6.10;99.90;;;;;;5055307;28;20044;-74
2023/05/04 00:10:55;;;;;;;5.80;3.03;;;6.10;99.90;;;;;;5054280;28;20056;-74
2023/05/04 00:13:21;;;;;;;5.10;2.78;;;6.10;99.90;;;;;;5054229;28;20041;-74
2023/05/04 00:15:47;;;;;;;7.55;3.15;;;6.00;99.90;;;;;;5053398;28;20122;-74
2023/05/04 00:18:13;;;;;;;4.95;2.80;;;6.10;99.90;;;;;;5053634;28;20045;-74
2023/05/04 00:20:38;;;;;;;5.50;3.47;;;6.00;99.90;;;;;;5053413;28;20098;-74
2023/05/04 00:23:04;;;;;;;6.13;3.58;;;6.00;99.90;;;;;;5054052;28;20493;-74
2023/05/04 00:25:30;;;;;;;5.30;2.83;;;6.00;99.90;;;;;;5054261;28;20505;-74
2023/05/04 00:27:56;;;;;;;5.30;2.90;;;6.00;99.90;;;;;;5054006;28;20048;-74
2023/05/04 00:30:22;;;;;;;5.35;2.85;;;5.90;99.90;;;;;;5052914;28;20159;-74
2023/05/04 00:32:47;;;;;;;5.47;3.03;;;5.90;99.90;;;;;;5054693;28;20044;-74
2023/05/04 00:35:13;;;;;;;3.78;2.60;;;5.80;99.90;;;;;;5052976;28;20048;-74
2023/05/04 00:37:42;;;;;;;10.45;3.42;;;5.80;99.90;;;;;;5053561;28;20049;-75
2023/05/04 00:40:08;;;;;;;3.58;2.75;;;5.80;99.90;;;;;;5053496;28;20382;-74
2023/05/04 00:42:34;;;;;;;6.25;3.10;;;5.80;99.90;;;;;;5054169;28;20051;-74
2023/05/04 00:45:00;;;;;;;4.55;2.85;;;5.80;99.90;;;;;;5053582;28;20417;-74
2023/05/04 00:47:26;;;;;;;4.20;2.70;;;5.70;99.90;;;;;;5053715;28;20049;-75
2023/05/04 00:49:51;;;;;;;5.20;2.85;;;5.70;99.90;;;;;;5052924;28;20450;-74
2023/05/04 00:52:19;;;;;;;5.55;3.33;;;5.70;99.90;;;;;;5052689;28;20128;-74
2023/05/04 00:54:46;;;;;;;6.18;3.03;;;5.70;99.90;;;;;;5053610;28;20053;-74
2023/05/04 00:57:13;;;;;;;4.82;2.95;;;5.70;99.90;;;;;;5052694;28;20107;-74
2023/05/04 00:59:39;;;;;;;4.82;3.25;;;5.70;99.90;;;;;;5053122;28;20055;-74
2023/05/04 01:02:04;;;;;;;5.90;3.05;;;5.60;99.90;;;;;;5053551;28;20486;-74
2023/05/04 01:04:30;;;;;;;5.43;2.92;;;5.60;99.90;;;;;;5053521;28;20470;-74
2023/05/04 01:07:02;;;;;;;5.18;2.70;;;5.60;99.90;;;;;;5053443;28;20048;-74
2023/05/04 01:09:34;;;;;;;5.22;3.22;;;5.50;99.90;;;;;;5053425;28;20048;-74
2023/05/04 01:12:08;;;;;;;4.45;3.15;;;5.50;99.90;;;;;;5052614;28;20048;-74
2023/05/04 01:14:35;;;;;;;5.45;3.50;;;5.50;99.90;;;;;;5053378;28;20053;-74
2023/05/04 01:17:04;;;;;;;7.25;3.22;;;5.40;99.90;;;;;;5053351;28;20037;-74
2023/05/04 01:19:30;;;;;;;5.25;3.08;;;5.50;99.90;;;;;;5053706;28;20033;-74
2023/05/04 01:21:56;;;;;;;6.80;3.47;;;5.40;99.90;;;;;;5053313;28;20052;-74
2023/05/04 01:24:23;;;;;;;4.68;2.97;;;5.30;99.90;;;;;;5053365;28;20056;-74
2023/05/04 01:26:54;;;;;;;5.53;3.42;;;5.30;99.90;;;;;;5053268;28;20049;-74
2023/05/04 01:29:26;;;;;;;6.60;3.50;;;5.30;99.90;;;;;;5053122;28;20359;-74
2023/05/04 01:31:52;;;;;;;5.07;3.30;;;5.30;99.90;;;;;;5053823;28;20048;-74
2023/05/04 01:34:20;;;;;;;6.88;3.30;;;5.30;99.90;;;;;;5053253;28;20049;-74
2023/05/04 01:36:46;;;;;;;6.30;3.33;;;5.20;99.90;;;;;;5053670;28;20448;-74
2023/05/04 01:39:12;;;;;;;5.55;3.13;;;5.20;99.90;;;;;;5053057;28;20053;-75
2023/05/04 01:41:37;;;;;;;4.70;3.03;;;5.10;99.90;;;;;;5036489;28;20102;-74
2023/05/04 01:44:04;;;;;;;6.55;3.05;;;5.10;99.90;;;;;;5053663;28;20385;-74
2023/05/04 01:46:29;;;;;;;4.90;3.15;;;5.10;99.90;;;;;;5053578;28;20049;-74
2023/05/04 01:48:55;;;;;;;6.97;3.63;;;5.00;99.90;;;;;;5053915;28;20056;-74
2023/05/04 01:51:21;;;;;;;5.78;3.20;;;5.20;99.90;;;;;;5053289;28;20381;-74
2023/05/04 01:53:46;;;;;;;6.03;3.53;;;5.10;99.90;;;;;;5052365;28;20049;-74
2023/05/04 01:56:12;;;;;;;6.43;3.50;;;5.10;99.90;;;;;;5056389;28;20474;-74
2023/05/04 01:58:38;;;;;;;5.28;2.95;;;5.20;99.90;;;;;;5039188;28;20538;-74
2023/05/04 02:01:04;;;;;;;6.15;3.28;;;5.20;99.90;;;;;;5056718;28;20124;-74
2023/05/04 02:03:30;;;;;;;5.65;3.42;;;5.20;99.90;;;;;;5055764;28;20386;-75
2023/05/04 02:05:56;;;;;;;7.93;3.47;;;5.20;99.90;;;;;;5056708;28;20049;-74
2023/05/04 02:08:21;;;;;;;7.65;3.60;;;5.30;99.90;;;;;;5056670;28;20045;-74
2023/05/04 02:10:47;;;;;;;7.22;3.85;;;5.30;99.90;;;;;;5055872;28;20057;-74
2023/05/04 02:13:13;;;;;;;5.80;3.17;;;5.30;99.90;;;;;;5056509;28;20045;-74
2023/05/04 02:15:39;;;;;;;6.47;3.45;;;5.20;99.90;;;;;;5056481;28;20052;-74
2023/05/04 02:18:05;;;;;;;5.20;3.13;;;5.20;99.90;;;;;;5055470;28;20084;-74
2023/05/04 02:20:30;;;;;;;6.90;3.83;;;5.20;99.90;;;;;;5056350;28;20092;-74
2023/05/04 02:22:56;;;;;;;6.15;3.58;;;5.10;99.90;;;;;;5056025;28;20048;-74
2023/05/04 02:25:22;;;;;;;8.73;4.13;;;5.10;99.90;;;;;;5056475;28;20044;-74
2023/05/04 02:27:48;;;;;;;6.47;3.28;;;5.10;99.90;;;;;;5057074;28;20084;-75
2023/05/04 02:30:13;;;;;;;8.05;4.10;;;5.10;99.90;;;;;;5057005;28;20041;-74
2023/05/04 02:32:39;;;;;;;7.50;3.70;;;5.20;99.90;;;;;;5055912;28;20049;-74
2023/05/04 02:35:05;;;;;;;9.10;5.10;;;5.20;99.90;;;;;;5055176;28;20049;-74
2023/05/04 02:37:31;;;;;;;5.35;3.25;;;5.20;99.90;;;;;;5056095;28;20089;-74
2023/05/04 02:39:57;;;;;;;5.90;3.88;;;5.20;99.90;;;;;;5056104;28;20057;-74
2023/05/04 02:42:22;;;;;;;6.97;3.95;;;5.20;99.90;;;;;;5055979;28;20508;-74
2023/05/04 02:44:48;;;;;;;6.07;3.72;;;5.20;99.90;;;;;;5054687;28;20563;-74
2023/05/04 02:47:14;;;;;;;5.85;3.65;;;5.20;99.90;;;;;;5055846;28;20044;-74
2023/05/04 02:49:39;;;;;;;5.55;3.40;;;5.20;99.90;;;;;;5054942;28;20074;-74
2023/05/04 02:52:05;;;;;;;6.20;4.00;;;5.10;99.90;;;;;;5056091;28;20155;-74
2023/05/04 02:54:31;;;;;;;6.43;3.78;;;5.10;99.90;;;;;;5055815;28;20058;-74
2023/05/04 02:56:56;;;;;;;7.32;3.58;;;5.20;99.90;;;;;;5055356;28;20045;-74
2023/05/04 02:59:22;;;;;;;6.35;3.47;;;5.20;99.90;;;;;;5055886;28;20088;-74
2023/05/04 03:01:48;;;;;;;7.10;4.07;;;5.20;99.90;;;;;;5054476;28;20037;-74
2023/05/04 03:04:13;;;;;;;6.97;3.65;;;5.10;99.90;;;;;;5055528;28;20119;-74
2023/05/04 03:06:39;;;;;;;6.40;3.92;;;5.10;99.90;;;;;;5053391;28;20044;-74
2023/05/04 03:09:05;;;;;;;5.97;3.70;;;5.10;99.90;;;;;;5055991;28;20052;-74
2023/05/04 03:11:30;;;;;;;6.80;3.85;;;5.10;99.90;;;;;;5054444;28;20051;-74
2023/05/04 03:13:56;;;;;;;7.43;4.15;;;5.20;99.90;;;;;;5055561;28;20044;-75
2023/05/04 03:16:22;;;;;;;8.00;3.85;;;5.20;99.90;;;;;;5054898;28;20136;-74
2023/05/04 03:18:47;;;;;;;6.30;3.50;;;5.20;99.90;;;;;;5055786;28;20139;-74
2023/05/04 03:21:13;;;;;;;6.50;3.75;;;5.10;99.90;;;;;;5055241;28;20404;-74
2023/05/04 03:23:39;;;;;;;6.72;4.03;;;5.20;99.90;;;;;;5055044;28;20049;-75
2023/05/04 03:26:04;;;;;;;6.40;4.22;;;5.10;99.90;;;;;;5055128;28;20044;-74
2023/05/04 03:28:30;;;;;;;8.23;3.85;;;5.20;99.90;;;;;;5055642;28;20072;-74
2023/05/04 03:30:56;;;;;;;7.45;4.15;;;5.20;99.90;;;;;;5054125;28;20049;-74
2023/05/04 03:33:21;;;;;;;8.55;4.43;;;5.20;99.90;;;;;;5054908;28;20414;-74
2023/05/04 03:35:47;;;;;;;6.57;3.90;;;5.20;99.90;;;;;;5055100;28;20049;-74
2023/05/04 03:38:13;;;;;;;6.32;3.63;;;5.20;99.90;;;;;;5053908;28;20049;-74
2023/05/04 03:40:38;;;;;;;7.90;3.90;;;5.20;99.90;;;;;;5055231;28;20052;-74
2023/05/04 03:43:04;;;;;;;7.45;3.65;;;5.20;99.90;;;;;;5054808;28;20041;-74
2023/05/04 03:45:30;;;;;;;7.70;4.07;;;5.20;99.90;;;;;;5054768;28;20041;-74
2023/05/04 03:47:55;;;;;;;7.45;3.70;;;5.20;99.90;;;;;;5053613;28;20049;-73
2023/05/04 03:50:21;;;;;;;9.07;4.38;;;5.20;99.90;;;;;;5054761;28;20485;-74
2023/05/04 03:52:48;;;;;;;6.63;3.80;;;5.30;99.90;;;;;;5054501;28;20045;-73
2023/05/04 03:55:14;;;;;;;8.90;4.85;;;5.20;99.90;;;;;;5054521;28;20044;-75
2023/05/04 03:57:40;;;;;;;7.22;4.80;;;5.20;99.90;;;;;;5054529;28;20044;-74
2023/05/04 04:00:06;;;;;;;6.82;4.18;;;5.30;99.90;;;;;;5054307;28;20473;-74
2023/05/04 04:02:32;;;;;;;6.72;3.83;;;5.20;99.90;;;;;;5054586;28;20045;-75
2023/05/04 04:04:58;;;;;;;8.23;4.32;;;5.20;99.90;;;;;;5054351;28;20390;-74
2023/05/04 04:07:23;;;;;;;7.75;4.45;;;5.30;99.90;;;;;;5053373;28;20055;-74
2023/05/04 04:09:49;;;;;;;8.05;3.90;;;5.30;99.90;;;;;;5053560;28;20049;-74
2023/05/04 04:12:17;;;;;;;6.68;4.05;;;5.30;99.90;;;;;;5054253;28;20135;-74
2023/05/04 04:14:43;;;;;;;8.05;4.25;;;5.30;99.90;;;;;;5054948;28;20482;-73
2023/05/04 04:17:09;;;;;;;7.32;4.28;;;5.30;99.90;;;;;;5052650;28;20056;-73
2023/05/04 04:19:35;;;;;;;7.68;3.70;;;5.30;99.90;;;;;;5054061;28;20053;-73
2023/05/04 04:22:01;;;;;;;5.80;4.00;;;5.30;99.90;;;;;;5054860;28;20053;-74
2023/05/04 04:24:27;;;;;;;6.05;3.72;;;5.30;99.90;;;;;;5054065;28;20045;-73
2023/05/04 04:26:52;;;;;;;7.13;3.92;;;5.30;99.90;;;;;;5053841;28;20132;-74
2023/05/04 04:29:18;;;;;;;10.18;4.10;;;5.30;99.90;;;;;;5056216;28;20044;-73
2023/05/04 04:31:44;;;;;;;8.02;3.35;;;5.40;99.90;;;;;;5056223;28;20480;-73
2023/05/04 04:34:09;;;;;;;7.28;3.75;;;5.30;99.90;;;;;;5054491;28;20049;-73
2023/05/04 04:36:35;;;;;;;7.43;4.28;;;5.30;99.90;;;;;;5054664;28;20133;-74
2023/05/04 04:39:01;;;;;;;7.65;4.18;;;5.40;99.90;;;;;;5052769;28;20486;-73
2023/05/04 04:41:27;;;;;;;7.88;4.03;;;5.40;99.90;;;;;;5054010;28;20052;-74
2023/05/04 04:43:52;;;;;;;8.80;4.30;;;5.40;99.90;;;;;;5053373;28;20041;-74
2023/05/04 04:46:18;;;;;;;6.60;4.20;;;5.40;99.90;;;;;;5053698;28;20102;-74
2023/05/04 04:48:43;;;;;;;5.90;3.70;;;5.50;99.90;;;;;;5053635;28;20173;-74
2023/05/04 04:51:12;;;;;;;6.60;3.83;;;5.50;99.90;;;;;;5053553;28;20078;-75
2023/05/04 04:53:38;;;;;;;7.85;4.10;;;5.50;99.90;;;;;;5052231;28;20114;-74
2023/05/04 04:56:06;;;;;;;7.82;4.30;;;5.60;99.90;;;;;;5052834;28;20048;-74
2023/05/04 04:58:32;;;;;;;7.80;4.40;;;5.60;99.90;;;;;;5052739;28;20045;-74
2023/05/04 05:00:58;;;;;;;8.02;5.45;;;5.60;99.90;;;;;;5053457;28;20045;-74
2023/05/04 05:03:24;;;;;;;8.57;4.20;;;5.70;99.90;;;;;;5053449;28;20049;-73
2023/05/04 05:05:49;;;;;;;8.32;4.38;;;5.70;99.90;;;;;;5054259;28;20044;-73
2023/05/04 05:08:15;;;;;;;14.15;12.63;;;5.80;99.90;;;;;;5052131;28;20048;-73
2023/05/04 05:10:41;;;;;;;7.80;4.63;;;5.80;99.90;;;;;;5052099;28;20101;-74
2023/05/04 05:13:07;;;;;;;6.20;4.40;;;5.90;99.90;;;;;;5053198;28;20384;-73
2023/05/04 05:15:33;;;;;;;6.95;4.50;;;6.00;99.90;;;;;;5053620;28;20094;-73
2023/05/04 05:17:59;;;;;;;8.88;5.00;;;6.00;99.90;;;;;;5052459;28;20378;-73
2023/05/04 05:20:25;;;;;;;8.02;4.63;;;6.10;99.90;;;;;;5052096;28;20048;-73
2023/05/04 05:22:51;;;;;;;7.65;4.85;;;6.10;99.90;;;;;;5053294;28;20107;-73
2023/05/04 05:25:17;;;;;;;8.43;4.55;;;6.20;99.90;;;;;;5036473;28;20045;-74
2023/05/04 05:27:43;;;;;;;7.35;4.50;;;6.30;99.90;;;;;;5053311;28;20056;-74
2023/05/04 05:30:10;;;;;;;7.00;4.38;;;6.40;99.90;;;;;;5055214;28;20049;-73
2023/05/04 05:32:36;;;;;;;9.30;4.60;;;6.40;99.90;;;;;;5057297;28;20044;-74
2023/05/04 05:35:03;;;;;;;8.57;4.55;;;6.50;99.90;;;;;;5057214;28;20052;-73
2023/05/04 05:37:30;;;;;;;8.68;4.85;;;6.60;99.90;;;;;;5057287;28;20102;-73
2023/05/04 05:39:56;;;;;;;7.65;4.75;;;6.70;99.90;;;;;;5055600;28;20061;-74
2023/05/04 05:42:21;;;;;;;12.20;5.55;;;6.80;99.90;;;;;;5057471;28;20045;-74
2023/05/04 05:44:47;;;;;;;8.52;4.55;;;6.90;99.90;;;;;;5057009;28;20092;-74
2023/05/04 05:47:13;;;;;;;8.50;5.13;;;6.90;99.90;;;;;;5056173;28;20041;-74
2023/05/04 05:49:40;;;;;;;11.07;5.68;;;7.00;99.90;;;;;;5057081;28;20127;-74
2023/05/04 05:52:06;;;;;;;9.65;5.22;;;7.10;99.90;;;;;;5055711;28;20498;-74
2023/05/04 05:54:33;;;;;;;9.70;5.15;;;7.20;99.90;;;;;;5056897;28;20037;-74
2023/05/04 05:56:58;;;;;;;7.65;4.97;;;7.30;99.90;;;;;;5055915;28;20057;-73
2023/05/04 05:59:24;;;;;;;8.05;5.07;;;7.30;99.90;;;;;;5056722;28;20045;-74
2023/05/04 06:01:50;;;;;;;8.30;5.05;;;7.40;99.90;;;;;;5056027;28;20126;-74
2023/05/04 06:04:15;;;;;;;8.35;5.47;;;7.40;99.90;;;;;;5056671;28;20084;-73
2023/05/04 06:06:41;;;;;;;8.82;5.28;;;7.50;99.90;;;;;;5056693;28;20060;-74
2023/05/04 06:09:07;;;;;;;9.98;5.35;;;7.50;99.90;;;;;;5056355;28;20037;-73
2023/05/04 06:11:32;;;;;;;8.88;5.18;;;7.70;99.90;;;;;;5056600;28;20049;-74
2023/05/04 06:13:58;;;;;;;9.60;5.18;;;7.70;99.90;;;;;;5056478;28;20390;-73
2023/05/04 06:16:24;;;;;;;8.13;4.70;;;7.80;99.90;;;;;;5056498;28;20095;-68
2023/05/04 06:18:50;;;;;;;8.27;5.35;;;7.90;99.90;;;;;;5055387;28;20485;-68
2023/05/04 06:21:16;;;;;;;8.07;5.00;;;7.90;99.90;;;;;;5056971;28;20124;-68
2023/05/04 06:23:42;;;;;;;7.63;4.93;;;8.00;99.90;;;;;;5056350;28;20466;-68
2023/05/04 06:26:08;;;;;;;9.50;5.32;;;8.10;99.90;;;;;;5056330;28;20126;-68
2023/05/04 06:28:34;;;;;;;8.43;5.20;;;8.20;99.90;;;;;;5057017;28;20466;-68
2023/05/04 06:31:01;;;;;;;7.40;5.40;;;8.30;99.90;;;;;;5056223;28;20397;-68
2023/05/04 06:33:26;;;;;;;7.85;4.75;;;8.50;99.90;;;;;;5055948;28;20049;-69
2023/05/04 06:35:53;;;;;;;8.75;5.22;;;8.50;99.90;;;;;;5056086;28;20132;-68
2023/05/04 06:38:18;;;;;;;7.30;5.22;;;8.60;99.90;;;;;;5055930;28;20064;-68
2023/05/04 06:40:44;;;;;;;8.90;4.65;;;8.70;99.90;;;;;;5054608;28;20053;-68
2023/05/04 06:43:10;;;;;;;7.22;5.07;;;8.70;99.90;;;;;;5055728;28;20053;-69
2023/05/04 06:45:36;;;;;;;8.85;5.55;;;8.80;99.90;;;;;;5056165;28;20052;-68
2023/05/04 06:48:03;;;;;;;7.38;5.10;;;8.90;99.90;;;;;;5056518;28;20044;-68
2023/05/04 06:50:29;;;;;;;8.05;4.90;;;8.90;99.90;;;;;;5055515;28;20411;-68
2023/05/04 06:53:07;;;;;;;8.32;5.40;;;9.00;99.90;;;;;;5055584;28;20076;-68
2023/05/04 06:55:34;;;;;;;8.63;5.57;;;9.10;99.90;;;;;;5054565;28;20056;-68
2023/05/04 06:58:00;;;;;;;9.85;5.32;;;9.10;99.90;;;;;;5055700;28;20052;-68
2023/05/04 07:00:26;;;;;;;8.82;4.93;;;9.20;99.90;;;;;;5037785;28;20048;-69
2023/05/04 07:02:52;;;;;;;8.50;4.97;;;9.30;99.90;;;;;;5055331;28;20493;-68
2023/05/04 07:05:20;;;;;;;7.90;5.00;;;9.40;99.90;;;;;;5055532;28;20048;-69
2023/05/04 07:07:46;;;;;;;6.85;5.63;;;9.50;99.90;;;;;;5054810;28;20041;-68
2023/05/04 07:10:13;;;;;;;9.85;5.80;;;9.60;99.90;;;;;;5055209;28;20052;-70
2023/05/04 07:12:40;;;;;;;9.15;5.82;;;9.60;99.90;;;;;;5055356;28;20108;-71
2023/05/04 07:15:07;;;;;;;11.13;5.63;;;9.70;99.90;;;;;;5054311;28;20057;-70
2023/05/04 07:17:33;;;;;;;9.98;5.88;;;9.80;99.90;;;;;;5055230;28;20045;-71
2023/05/04 07:20:03;;;;;;;8.60;6.30;;;9.90;99.90;;;;;;5055147;28;20047;-69
2023/05/04 07:22:30;;;;;;;9.80;6.10;;;10.00;99.90;;;;;;5055154;28;20037;-71
2023/05/04 07:25:00;;;;;;;10.10;6.20;;;10.00;99.90;;;;;;5055152;28;20088;-73
2023/05/04 07:27:26;;;;;;;8.32;5.80;;;10.20;99.90;;;;;;5055047;28;20053;-70
2023/05/04 07:29:51;;;;;;;6.97;5.15;;;10.30;99.90;;;;;;5055337;28;20048;-71
2023/05/04 07:32:18;;;;;;;8.68;5.15;;;10.40;99.90;;;;;;5055521;28;20041;-71
2023/05/04 07:34:44;;;;;;;8.25;5.30;;;10.50;99.90;;;;;;5055526;28;20128;-71
2023/05/04 07:37:09;;;;;;;10.60;5.40;;;10.60;99.90;;;;;;5054874;28;20059;-74
2023/05/04 07:39:35;;;;;;;7.95;5.25;;;10.80;99.90;;;;;;5054806;28;20060;-70
2023/05/04 07:42:05;;;;;;;7.60;4.75;;;10.80;99.90;;;;;;5054515;28;20547;-71
2023/05/04 07:44:31;;;;;;;8.40;4.50;;;10.90;99.90;;;;;;5054719;28;20405;-71
2023/05/04 07:46:58;;;;;;;8.48;4.80;;;11.00;99.90;;;;;;5054682;28;20045;-70
2023/05/04 07:49:24;;;;;;;8.90;4.78;;;11.10;99.90;;;;;;5054689;28;20048;-68
2023/05/04 07:51:50;;;;;;;8.68;4.70;;;11.10;99.90;;;;;;5054159;28;20095;-68
2023/05/04 07:54:15;;;;;;;9.18;4.72;;;11.40;99.90;;;;;;5054383;28;20053;-69
2023/05/04 07:56:41;;;;;;;7.40;5.07;;;11.30;99.90;;;;;;5054605;28;20052;-69
2023/05/04 07:59:07;;;;;;;7.78;5.10;;;11.40;99.90;;;;;;5054414;28;20440;-69
2023/05/04 08:01:33;;;;;;;6.40;4.50;;;11.50;99.90;;;;;;5054393;28;20106;-68
2023/05/04 08:03:58;;;;;;;10.48;4.75;;;11.60;99.90;;;;;;5053189;28;20124;-70
2023/05/04 08:06:24;;;;;;;7.68;4.88;;;11.70;99.90;;;;;;5054631;28;20389;-68
2023/05/04 08:08:50;;;;;;;8.00;4.80;;;11.80;99.90;;;;;;5054220;28;20041;-69
2023/05/04 08:11:16;;;;;;;7.93;4.72;;;11.90;99.90;;;;;;5054217;28;20401;-69
2023/05/04 08:13:45;;;;;;;7.70;4.60;;;12.00;99.90;;;;;;5052610;28;20041;-68
2023/05/04 08:16:11;;;;;;;7.03;4.50;;;12.10;99.90;;;;;;5054193;28;20446;-67
2023/05/04 08:18:37;;;;;;;6.25;4.68;;;12.30;99.90;;;;;;5052860;28;20084;-68
2023/05/04 08:21:03;;;;;;;8.55;4.80;;;12.30;99.90;;;;;;5054177;28;20080;-68
2023/05/04 08:23:30;;;;;;;7.05;4.60;;;12.50;99.90;;;;;;5054112;28;20044;-68
2023/05/04 08:25:56;;;;;;;6.90;4.35;;;12.60;99.90;;;;;;5054331;28;20402;-69
2023/05/04 08:28:22;;;;;;;7.68;4.45;;;12.70;99.90;;;;;;5053037;28;20045;-69
2023/05/04 08:30:48;;;;;;;6.80;4.30;;;12.80;99.90;;;;;;5054457;28;20048;-68
2023/05/04 08:33:13;;;;;;;10.65;5.65;;;13.00;99.90;;;;;;5054388;28;20049;-69
2023/05/04 08:35:39;;;;;;;7.90;4.57;;;13.10;99.90;;;;;;5054402;28;20132;-67
2023/05/04 08:38:06;;;;;;;6.40;4.65;;;13.30;99.90;;;;;;5053851;28;20095;-69
2023/05/04 08:40:32;;;;;;;5.85;4.47;;;13.40;99.90;;;;;;5054204;28;20061;-71
2023/05/04 08:42:58;;;;;;;9.57;4.85;;;13.50;99.90;;;;;;5054228;28;20088;-68
2023/05/04 08:45:24;;;;;;;6.82;4.72;;;13.60;99.90;;;;;;5053612;28;20083;-68
2023/05/04 08:47:50;;;;;;;7.82;4.70;;;13.70;99.90;;;;;;5053690;28;20052;-68
2023/05/04 08:50:16;;;;;;;6.25;4.50;;;13.70;99.90;;;;;;5054112;28;20044;-68
2023/05/04 08:52:47;;;;;;;7.65;4.65;;;13.90;99.90;;;;;;5053543;28;20049;-69
2023/05/04 08:55:15;;;;;;;6.88;4.85;;;14.00;99.90;;;;;;5053563;28;20128;-68
2023/05/04 08:57:43;;;;;;;7.32;4.53;;;14.10;99.90;;;;;;5052584;28;20057;-69
2023/05/04 09:00:11;;;;;;;6.85;4.90;;;14.10;99.90;;;;;;5053507;28;20124;-68
2023/05/04 09:02:37;;;;;;;6.72;4.38;;;14.10;99.90;;;;;;5052469;28;20052;-68
2023/05/04 09:05:04;;;;;;;7.75;4.60;;;14.10;99.90;;;;;;5053744;28;20041;-67
2023/05/04 09:07:31;;;;;;;7.20;4.00;;;14.10;99.90;;;;;;5053862;28;20397;-70
2023/05/04 09:09:57;;;;;;;7.60;3.85;;;14.20;99.90;;;;;;5053460;28;20076;-69
2023/05/04 09:12:25;;;;;;;5.28;4.10;;;14.30;99.90;;;;;;5052652;28;20511;-69
2023/05/04 09:14:51;;;;;;;6.07;4.25;;;14.50;99.90;;;;;;5053466;28;20576;-69
2023/05/04 09:17:28;;;;;;;5.82;3.90;;;14.70;99.90;;;;;;5053370;28;20076;-70
2023/05/04 09:20:01;;;;;;;6.95;3.97;;;14.90;99.90;;;;;;5053829;28;20052;-69
2023/05/04 09:22:27;;;;;;;7.30;4.45;;;15.10;99.90;;;;;;5053218;28;20041;-70
2023/05/04 09:25:03;;;;;;;7.90;4.47;;;15.30;99.90;;;;;;5053329;28;20076;-69
2023/05/04 09:27:29;;;;;;;6.75;4.20;;;15.50;99.90;;;;;;5053602;28;20127;-70
2023/05/04 09:29:56;;;;;;;6.00;4.05;;;15.70;99.90;;;;;;5053211;28;20551;-68
2023/05/04 09:32:22;;;;;;;5.45;3.83;;;15.80;99.90;;;;;;5052907;28;20462;-70
2023/05/04 09:34:53;;;;;;;5.38;3.92;;;15.90;99.90;;;;;;5052129;28;20131;-69
2023/05/04 09:37:22;;;;;;;4.72;3.83;;;16.10;99.90;;;;;;5053076;28;20466;-69
2023/05/04 09:39:58;;;;;;;6.80;3.67;;;16.30;99.90;;;;;;5052788;28;20057;-69
2023/05/04 09:42:25;;;;;;;7.63;3.70;;;16.50;99.90;;;;;;5051918;28;20561;-69
2023/05/04 09:45:01;;;;;;;5.82;3.45;;;16.60;99.90;;;;;;5053094;28;20287;-70
2023/05/04 09:47:39;;;;;;;5.63;3.67;;;16.60;99.90;;;;;;5053105;28;20052;-72
2023/05/04 09:50:18;;;;;;;4.43;3.47;;;16.60;99.90;;;;;;5053085;28;20049;-69
2023/05/04 09:52:45;;;;;;;6.13;3.90;;;16.80;99.90;;;;;;5053042;28;20041;-69
2023/05/04 09:55:19;;;;;;;5.40;3.50;;;17.00;99.90;;;;;;5052947;28;20052;-69
2023/05/04 09:57:47;;;;;;;6.20;3.78;;;17.10;99.90;;;;;;5051776;28;20092;-69
2023/05/04 10:00:16;;;;;;;5.88;3.85;;;17.20;99.90;;;;;;5052378;28;20045;-70
2023/05/04 10:02:46;;;;;;;7.65;3.92;;;17.20;99.90;;;;;;5052913;28;20049;-69
2023/05/04 10:05:16;;;;;;;6.28;4.22;;;17.30;99.90;;;;;;5053182;28;20382;-71
2023/05/04 10:07:45;;;;;;;5.93;3.83;;;17.30;99.90;;;;;;5051857;28;20053;-69
2023/05/04 10:10:13;;;;;;;8.05;3.83;;;17.40;99.90;;;;;;5053687;28;20088;-67
2023/05/04 10:12:39;;;;;;;5.57;4.18;;;17.60;99.90;;;;;;5053582;28;20045;-69
2023/05/04 10:15:07;;;;;;;6.70;4.32;;;17.70;99.90;;;;;;5053154;28;20045;-68
2023/05/04 10:17:56;;;;;;;6.35;3.88;;;17.90;99.90;;;;;;5056214;28;20045;-69
2023/05/04 10:20:28;;;;;;;5.03;3.63;;;18.00;99.90;;;;;;5056959;28;20045;-69
2023/05/04 10:23:17;;;;;;;5.15;3.90;;;18.20;99.90;;;;;;5056988;28;20436;-68
2023/05/04 10:25:53;;;;;;;8.05;3.70;;;18.40;99.90;;;;;;5056900;28;20041;-70
2023/05/04 10:28:42;;;;;;;5.20;3.83;;;18.50;99.90;;;;;;5055359;28;20048;-69
2023/05/04 10:31:08;;;;;;;8.73;4.00;;;18.50;99.90;;;;;;5056337;28;20128;-69
2023/05/04 10:33:38;;;;;;;8.30;3.83;;;18.60;99.90;;;;;;5056036;28;20080;-69
2023/05/04 10:36:04;;;;;;;5.22;3.47;;;18.80;99.90;;;;;;5055941;28;20465;-70
2023/05/04 10:38:34;;;;;;;5.70;3.13;;;18.90;99.90;;;;;;5056110;28;20072;-68
2023/05/04 10:41:11;;;;;;;4.47;3.15;;;19.10;99.90;;;;;;5054757;28;20095;-69
2023/05/04 10:43:37;;;;;;;5.75;3.42;;;19.20;99.90;;;;;;5056818;28;20055;-69
2023/05/04 10:46:14;;;;;;;7.97;3.65;;;19.20;99.90;;;;;;5055918;28;20402;-69
2023/05/04 10:48:39;;;;;;;5.32;2.90;;;19.40;99.90;;;;;;5054953;28;20091;-69
2023/05/04 10:51:17;;;;;;;3.92;2.80;;;19.40;99.90;;;;;;5055914;28;20088;-69
2023/05/04 10:53:43;;;;;;;5.03;2.75;;;19.40;99.90;;;;;;5055185;28;20041;-68
2023/05/04 10:56:19;;;;;;;4.75;2.65;;;19.60;99.90;;;;;;5055090;28;20056;-69
2023/05/04 10:58:46;;;;;;;3.85;2.55;;;19.70;99.90;;;;;;5056193;28;20044;-69
2023/05/04 11:01:12;;;;;;;3.20;2.40;;;19.80;99.90;;;;;;5055718;28;20469;-68
2023/05/04 11:03:42;;;;;;;4.85;2.70;;;20.00;99.90;;;;;;5055583;28;20179;-68
2023/05/04 11:06:26;;;;;;;4.15;2.80;;;20.20;99.90;;;;;;5055432;28;20120;-68
2023/05/04 11:09:00;;;;;;;4.60;2.60;;;20.30;99.90;;;;;;5054339;28;20044;-69
2023/05/04 11:11:26;;;;;;;3.10;2.40;;;20.40;99.90;;;;;;5055501;28;20053;-68
2023/05/04 11:13:53;;;;;;;3.92;2.35;;;20.50;99.90;;;;;;5055409;28;20049;-70
2023/05/04 11:16:23;;;;;;;3.70;2.58;;;20.60;99.90;;;;;;5054598;28;20444;-68
2023/05/04 11:18:48;;;;;;;4.90;2.55;;;20.70;99.90;;;;;;5037568;28;20045;-69
2023/05/04 11:21:24;;;;;;;5.07;2.60;;;20.80;99.90;;;;;;5055788;28;20044;-68
2023/05/04 11:23:57;;;;;;;4.85;2.47;;;20.90;99.90;;;;;;5055256;28;20049;-67
2023/05/04 11:26:23;;;;;;;4.75;3.35;;;21.10;99.90;;;;;;5054902;28;20033;-68
2023/05/04 11:28:49;;;;;;;10.38;7.50;;;21.00;99.90;;;;;;5054375;28;20040;-70
2023/05/04 11:31:20;;;;;;;6.72;4.03;;;21.00;99.90;;;;;;5053923;28;20107;-68
2023/05/04 11:33:51;;;;;;;5.93;3.15;;;21.00;99.90;;;;;;5054412;28;20048;-69
2023/05/04 11:36:17;;;;;;;4.65;2.97;;;20.90;99.90;;;;;;5055097;28;20127;-69
2023/05/04 11:38:43;;;;;;;3.30;2.45;;;20.80;99.90;;;;;;5054848;28;20045;-68
2023/05/04 11:41:10;;;;;;;6.35;3.38;;;20.80;99.90;;;;;;5054981;28;20478;-69
2023/05/04 11:43:37;;;;;;;4.95;3.05;;;20.80;99.90;;;;;;5054823;28;20056;-68
2023/05/04 11:46:04;;;;;;;7.18;2.78;;;20.80;99.90;;;;;;5054810;28;20076;-68
2023/05/04 11:48:31;;;;;;;6.57;3.20;;;20.90;99.90;;;;;;5054748;28;20482;-68
2023/05/04 11:50:57;;;;;;;4.45;2.95;;;21.00;99.90;;;;;;5054956;28;20081;-69
2023/05/04 11:53:23;;;;;;;4.53;2.83;;;21.10;99.90;;;;;;5054388;28;20498;-70
2023/05/04 11:55:52;;;;;;;3.97;2.80;;;21.30;99.90;;;;;;5054069;28;20045;-67
2023/05/04 11:58:24;;;;;;;6.07;2.83;;;21.20;99.90;;;;;;5037616;28;20123;-69
2023/05/04 12:00:54;;;;;;;4.68;3.13;;;21.30;99.90;;;;;;5054552;28;20052;-68
2023/05/04 12:03:32;;;;;;;4.53;2.75;;;21.40;99.90;;;;;;5054169;28;20517;-68
2023/05/04 12:05:59;;;;;;;4.00;2.63;;;21.60;99.90;;;;;;5054428;28;20045;-70
2023/05/04 12:08:26;;;;;;;5.10;3.08;;;21.70;99.90;;;;;;5054466;28;20056;-68
2023/05/04 12:11:19;;;;;;;5.55;3.10;;;21.80;99.90;;;;;;5054827;28;20106;-69
2023/05/04 12:13:46;;;;;;;4.47;2.72;;;21.90;99.90;;;;;;5041596;28;20061;-69
2023/05/04 12:16:12;;;;;;;3.55;2.60;;;21.90;99.90;;;;;;5054156;28;20045;-69
2023/05/04 12:18:37;;;;;;;10.07;3.45;;;22.10;99.90;;;;;;5054168;28;20052;-71
2023/05/04 12:21:14;;;;;;;6.10;2.95;;;22.30;99.90;;;;;;5054193;28;20099;-69
2023/05/04 12:23:41;;;;;;;5.97;2.95;;;22.60;99.90;;;;;;5053894;28;20045;-70
2023/05/04 12:26:08;;;;;;;4.60;2.83;;;22.70;99.90;;;;;;5053292;28;20084;-69
2023/05/04 12:28:35;;;;;;;4.32;2.50;;;22.80;99.90;;;;;;5054053;28;20135;-68
2023/05/04 12:31:03;;;;;;;4.25;2.83;;;23.00;99.90;;;;;;5053816;28;20081;-69
2023/05/04 12:33:29;;;;;;;4.45;3.03;;;23.10;99.90;;;;;;5053889;28;20114;-72
2023/05/04 12:35:55;;;;;;;5.03;2.83;;;23.30;99.90;;;;;;5053944;28;20118;-69
2023/05/04 12:38:21;;;;;;;4.55;2.50;;;23.50;99.90;;;;;;5053635;28;20053;-68
2023/05/04 12:40:47;;;;;;;4.43;2.65;;;23.70;99.90;;;;;;5052292;28;20410;-69
2023/05/04 12:43:12;;;;;;;4.18;2.70;;;23.90;99.90;;;;;;5053746;28;20090;-68
2023/05/04 12:45:38;;;;;;;3.83;2.25;;;24.00;99.90;;;;;;5054224;28;20124;-70
2023/05/04 12:48:04;;;;;;;3.47;2.35;;;23.80;99.90;;;;;;5054147;28;20056;-69
2023/05/04 12:50:30;;;;;;;4.15;2.92;;;23.60;99.90;;;;;;5053903;28;20091;-69
2023/05/04 12:52:55;;;;;;;4.00;2.58;;;23.30;99.90;;;;;;5053575;28;20045;-69